TPC74 EHLE-ENKB
Flight info
| Callsign | TPC74 |
|---|---|
| Flight time | 2h 29m |
| Altitude | 45000 |
| Route | EHGG DCT EDWG DCT ETMN/N0414F430 DCT EDXO DCT EDXW DCT EKVJ/N0422F410 DCT EKTS/N0414F430 DCT ENCN DCT ENZV DCT ENHD/N0421F410 DCT ENSO/N0414F430 DCT VOO DCT ENFL/N0421F410 DCT ENAL |
| Aircraft | PC24/M-SBDGIRWY/LB2 |
Departure
| Time | 2026-04-28 21:09 |
|---|---|
| Airport | Lelystad Airport (EHLE) |
Arrival
| Time | 2026-04-28 23:39 |
|---|---|
| Airport | Kristiansund Airport, Kvernberget (ENKB) |
| Time | Latitude | Longitude | Altitude | Speed | Heading |
|---|---|---|---|---|---|
| 2026-04-28 21:03 | 52.45237 | 5.51771 | -10 ft | 0 kts | 136° |
| 2026-04-28 21:06 | 52.45236 | 5.51779 | -10 ft | 2 kts | 78° |
| 2026-04-28 21:07 | 52.45246 | 5.51765 | -10 ft | 7 kts | 293° |
| 2026-04-28 21:07 | 52.45236 | 5.51694 | -10 ft | 11 kts | 227° |
| 2026-04-28 21:07 | 52.45174 | 5.51567 | -10 ft | 18 kts | 227° |
| 2026-04-28 21:07 | 52.45071 | 5.51386 | -10 ft | 25 kts | 227° |
| 2026-04-28 21:08 | 52.45053 | 5.51211 | -10 ft | 15 kts | 341° |
| 2026-04-28 21:08 | 52.45126 | 5.51126 | -9 ft | 10 kts | 345° |
| 2026-04-28 21:08 | 52.45148 | 5.51143 | -9 ft | 0 kts | 45° |
| 2026-04-28 21:08 | 52.45153 | 5.51153 | -9 ft | 15 kts | 47° |
| 2026-04-28 21:09 | 52.45417 | 5.51622 | -10 ft | 94 kts | 47° |
| 2026-04-28 21:09 | 52.46008 | 5.52671 | 53 ft | 152 kts | 47° |
| 2026-04-28 21:09 | 52.46812 | 5.54034 | 647 ft | 173 kts | 45° |
| 2026-04-28 21:09 | 52.47653 | 5.55360 | 1893 ft | 163 kts | 45° |
| 2026-04-28 21:10 | 52.48529 | 5.56584 | 2954 ft | 169 kts | 40° |
| 2026-04-28 21:10 | 52.49527 | 5.57698 | 3953 ft | 180 kts | 39° |
| 2026-04-28 21:10 | 52.50558 | 5.59012 | 4859 ft | 194 kts | 44° |
| 2026-04-28 21:10 | 52.51572 | 5.60530 | 5918 ft | 197 kts | 48° |
| 2026-04-28 21:11 | 52.52565 | 5.62113 | 7060 ft | 203 kts | 49° |
| 2026-04-28 21:11 | 52.53593 | 5.63821 | 7992 ft | 219 kts | 49° |
| 2026-04-28 21:11 | 52.54679 | 5.65709 | 8898 ft | 235 kts | 50° |
| 2026-04-28 21:11 | 52.55803 | 5.67752 | 9899 ft | 246 kts | 51° |
| 2026-04-28 21:12 | 52.56914 | 5.69861 | 10996 ft | 247 kts | 52° |
| 2026-04-28 21:12 | 52.58125 | 5.71838 | 12232 ft | 246 kts | 42° |
| 2026-04-28 21:12 | 52.59437 | 5.73503 | 13794 ft | 226 kts | 42° |
| 2026-04-28 21:12 | 52.60636 | 5.75207 | 14749 ft | 230 kts | 46° |
| 2026-04-28 21:13 | 52.61790 | 5.77064 | 15619 ft | 234 kts | 47° |
| 2026-04-28 21:13 | 52.62955 | 5.78934 | 16481 ft | 238 kts | 46° |
| 2026-04-28 21:13 | 52.64152 | 5.80820 | 17386 ft | 240 kts | 46° |
| 2026-04-28 21:13 | 52.65372 | 5.82742 | 18220 ft | 245 kts | 46° |
| 2026-04-28 21:14 | 52.66613 | 5.84700 | 18995 ft | 249 kts | 46° |
| 2026-04-28 21:14 | 52.67873 | 5.86692 | 19699 ft | 254 kts | 46° |
| 2026-04-28 21:14 | 52.69159 | 5.88726 | 20407 ft | 258 kts | 47° |
| 2026-04-28 21:14 | 52.70461 | 5.90788 | 21106 ft | 262 kts | 47° |
| 2026-04-28 21:15 | 52.71789 | 5.92892 | 21763 ft | 267 kts | 47° |
| 2026-04-28 21:15 | 52.73140 | 5.95035 | 22447 ft | 271 kts | 47° |
| 2026-04-28 21:15 | 52.74510 | 5.97210 | 23102 ft | 276 kts | 47° |
| 2026-04-28 21:15 | 52.75902 | 5.99423 | 23747 ft | 280 kts | 47° |
| 2026-04-28 21:16 | 52.77319 | 6.01676 | 24293 ft | 285 kts | 47° |
| 2026-04-28 21:16 | 52.78757 | 6.03966 | 24802 ft | 290 kts | 46° |
| 2026-04-28 21:16 | 52.80219 | 6.06294 | 25296 ft | 295 kts | 45° |
| 2026-04-28 21:16 | 52.81712 | 6.08676 | 25751 ft | 301 kts | 45° |
| 2026-04-28 21:17 | 52.83228 | 6.11095 | 26265 ft | 304 kts | 44° |
| 2026-04-28 21:17 | 52.84733 | 6.13502 | 26770 ft | 307 kts | 44° |
| 2026-04-28 21:17 | 52.86277 | 6.15971 | 27284 ft | 310 kts | 43° |
| 2026-04-28 21:17 | 52.87830 | 6.18459 | 27783 ft | 312 kts | 43° |
| 2026-04-28 21:18 | 52.89398 | 6.20973 | 28246 ft | 315 kts | 43° |
| 2026-04-28 21:18 | 52.90983 | 6.23518 | 28708 ft | 319 kts | 43° |
| 2026-04-28 21:18 | 52.92581 | 6.26085 | 29154 ft | 322 kts | 43° |
| 2026-04-28 21:18 | 52.94193 | 6.28679 | 29585 ft | 325 kts | 43° |
| 2026-04-28 21:19 | 52.95822 | 6.31301 | 30002 ft | 328 kts | 43° |
| 2026-04-28 21:19 | 52.97466 | 6.33952 | 30391 ft | 331 kts | 42° |
| 2026-04-28 21:19 | 52.99050 | 6.36507 | 30723 ft | 332 kts | 43° |
| 2026-04-28 21:19 | 53.00706 | 6.39186 | 31108 ft | 333 kts | 43° |
| 2026-04-28 21:20 | 53.02364 | 6.41868 | 31480 ft | 333 kts | 43° |
| 2026-04-28 21:20 | 53.04023 | 6.44554 | 31847 ft | 333 kts | 43° |
| 2026-04-28 21:20 | 53.05691 | 6.47257 | 32024 ft | 340 kts | 43° |
| 2026-04-28 21:20 | 53.07415 | 6.50053 | 32031 ft | 351 kts | 43° |
| 2026-04-28 21:21 | 53.11008 | 6.55896 | 32037 ft | 371 kts | 43° |
| 2026-04-28 21:21 | 53.14564 | 6.62378 | 32038 ft | 387 kts | 49° |
| 2026-04-28 21:22 | 53.18111 | 6.69344 | 32047 ft | 400 kts | 48° |
| 2026-04-28 21:22 | 53.21138 | 6.75301 | 32049 ft | 409 kts | 49° |
| 2026-04-28 21:23 | 53.25488 | 6.83903 | 32051 ft | 420 kts | 49° |
| 2026-04-28 21:23 | 53.29282 | 6.91420 | 32055 ft | 426 kts | 49° |
| 2026-04-28 21:24 | 53.33124 | 6.99060 | 32061 ft | 431 kts | 49° |
| 2026-04-28 21:24 | 53.36986 | 7.06763 | 32061 ft | 421 kts | 49° |
| 2026-04-28 21:25 | 53.38800 | 7.10395 | 32038 ft | 393 kts | 49° |
| 2026-04-28 21:25 | 53.40498 | 7.13796 | 32037 ft | 369 kts | 49° |
| 2026-04-28 21:25 | 53.42097 | 7.16997 | 32035 ft | 347 kts | 48° |
| 2026-04-28 21:25 | 53.43604 | 7.20021 | 32035 ft | 328 kts | 49° |
| 2026-04-28 21:26 | 53.45027 | 7.22882 | 32029 ft | 311 kts | 48° |
| 2026-04-28 21:26 | 53.46377 | 7.25596 | 32029 ft | 295 kts | 48° |
| 2026-04-28 21:26 | 53.47658 | 7.28176 | 32029 ft | 280 kts | 48° |
| 2026-04-28 21:26 | 53.48876 | 7.30631 | 32027 ft | 267 kts | 48° |
| 2026-04-28 21:27 | 53.50037 | 7.32975 | 32025 ft | 255 kts | 48° |
| 2026-04-28 21:27 | 53.51145 | 7.35209 | 32027 ft | 243 kts | 48° |
| 2026-04-28 21:27 | 53.52198 | 7.37342 | 32033 ft | 231 kts | 47° |
| 2026-04-28 21:27 | 53.53218 | 7.39400 | 32044 ft | 233 kts | 47° |
| 2026-04-28 21:28 | 53.54290 | 7.41562 | 32094 ft | 249 kts | 48° |
| 2026-04-28 21:28 | 53.55424 | 7.43858 | 32087 ft | 267 kts | 48° |
| 2026-04-28 21:28 | 53.56648 | 7.46344 | 32084 ft | 285 kts | 48° |
| 2026-04-28 21:28 | 53.57951 | 7.48990 | 32082 ft | 302 kts | 48° |
| 2026-04-28 21:29 | 53.59324 | 7.51781 | 32103 ft | 317 kts | 48° |
| 2026-04-28 21:29 | 53.60762 | 7.54707 | 32099 ft | 332 kts | 49° |
| 2026-04-28 21:29 | 53.62263 | 7.57767 | 32097 ft | 345 kts | 49° |
| 2026-04-28 21:29 | 53.63819 | 7.60941 | 32094 ft | 358 kts | 49° |
| 2026-04-28 21:30 | 53.65428 | 7.64227 | 32091 ft | 369 kts | 49° |
| 2026-04-28 21:30 | 53.67086 | 7.67621 | 32091 ft | 380 kts | 49° |
| 2026-04-28 21:30 | 53.70523 | 7.74665 | 32092 ft | 397 kts | 49° |
| 2026-04-28 21:31 | 53.74095 | 7.82009 | 32082 ft | 411 kts | 49° |
| 2026-04-28 21:31 | 53.75890 | 7.85711 | 32078 ft | 395 kts | 49° |
| 2026-04-28 21:31 | 53.77519 | 7.89249 | 32048 ft | 369 kts | 56° |
| 2026-04-28 21:32 | 53.78196 | 7.91820 | 32062 ft | 356 kts | 70° |
| 2026-04-28 21:32 | 53.78629 | 7.97142 | 32062 ft | 332 kts | 90° |
| 2026-04-28 21:32 | 53.78517 | 8.00928 | 32060 ft | 313 kts | 90° |
| 2026-04-28 21:32 | 53.78444 | 8.03368 | 32058 ft | 302 kts | 90° |
| 2026-04-28 21:33 | 53.78360 | 8.06775 | 32054 ft | 286 kts | 89° |
| 2026-04-28 21:33 | 53.78284 | 8.10050 | 32055 ft | 271 kts | 90° |
| 2026-04-28 21:33 | 53.78207 | 8.13156 | 32053 ft | 258 kts | 89° |
| 2026-04-28 21:33 | 53.78131 | 8.16114 | 32051 ft | 245 kts | 89° |
| 2026-04-28 21:34 | 53.78058 | 8.18926 | 32051 ft | 234 kts | 89° |
| 2026-04-28 21:34 | 53.77989 | 8.21623 | 32054 ft | 230 kts | 89° |
| 2026-04-28 21:34 | 53.77921 | 8.24418 | 32097 ft | 246 kts | 89° |
| 2026-04-28 21:34 | 53.77845 | 8.27417 | 32108 ft | 265 kts | 88° |
| 2026-04-28 21:35 | 53.77759 | 8.30630 | 32108 ft | 282 kts | 89° |
| 2026-04-28 21:35 | 53.77664 | 8.34049 | 32106 ft | 299 kts | 90° |
| 2026-04-28 21:35 | 53.77566 | 8.37657 | 32104 ft | 315 kts | 90° |
| 2026-04-28 21:35 | 53.77463 | 8.41452 | 32091 ft | 331 kts | 91° |
| 2026-04-28 21:36 | 53.77353 | 8.45416 | 32094 ft | 345 kts | 91° |
| 2026-04-28 21:36 | 53.77235 | 8.49539 | 32094 ft | 358 kts | 91° |
| 2026-04-28 21:36 | 53.77114 | 8.53813 | 32093 ft | 370 kts | 91° |
| 2026-04-28 21:36 | 53.76987 | 8.58216 | 32091 ft | 381 kts | 91° |
| 2026-04-28 21:37 | 53.77199 | 8.62683 | 32076 ft | 386 kts | 71° |
| 2026-04-28 21:37 | 53.78479 | 8.66651 | 32094 ft | 388 kts | 47° |
| 2026-04-28 21:37 | 53.80628 | 8.69396 | 32093 ft | 392 kts | 23° |
| 2026-04-28 21:37 | 53.83276 | 8.70431 | 32094 ft | 395 kts | 0° |
| 2026-04-28 21:38 | 53.86013 | 8.69863 | 32101 ft | 400 kts | 347° |
| 2026-04-28 21:38 | 53.88736 | 8.68745 | 32091 ft | 405 kts | 345° |
| 2026-04-28 21:38 | 53.94314 | 8.66774 | 32092 ft | 413 kts | 353° |
| 2026-04-28 21:39 | 53.97085 | 8.66482 | 32070 ft | 385 kts | 2° |
| 2026-04-28 21:39 | 53.99656 | 8.66776 | 32068 ft | 357 kts | 6° |
| 2026-04-28 21:39 | 54.02048 | 8.67178 | 32065 ft | 334 kts | 5° |
| 2026-04-28 21:39 | 54.04297 | 8.67370 | 32068 ft | 314 kts | 2° |
| 2026-04-28 21:40 | 54.06415 | 8.67390 | 32071 ft | 295 kts | 1° |
| 2026-04-28 21:40 | 54.08406 | 8.67461 | 32070 ft | 278 kts | 3° |
| 2026-04-28 21:40 | 54.10285 | 8.67580 | 32072 ft | 263 kts | 3° |
| 2026-04-28 21:40 | 54.12062 | 8.67682 | 32070 ft | 249 kts | 3° |
| 2026-04-28 21:41 | 54.13748 | 8.67769 | 32074 ft | 236 kts | 3° |
| 2026-04-28 21:41 | 54.15343 | 8.67850 | 32073 ft | 223 kts | 3° |
| 2026-04-28 21:41 | 54.16857 | 8.67929 | 32070 ft | 212 kts | 3° |
| 2026-04-28 21:41 | 54.18343 | 8.68008 | 32096 ft | 220 kts | 3° |
| 2026-04-28 21:42 | 54.19929 | 8.68095 | 32131 ft | 237 kts | 4° |
| 2026-04-28 21:42 | 54.21642 | 8.68186 | 32132 ft | 255 kts | 4° |
| 2026-04-28 21:42 | 54.23480 | 8.68283 | 32128 ft | 273 kts | 4° |
| 2026-04-28 21:42 | 54.25439 | 8.68384 | 32129 ft | 289 kts | 4° |
| 2026-04-28 21:43 | 54.27507 | 8.68493 | 32123 ft | 305 kts | 4° |
| 2026-04-28 21:43 | 54.29676 | 8.68602 | 32119 ft | 319 kts | 2° |
| 2026-04-28 21:43 | 54.31927 | 8.68091 | 32121 ft | 335 kts | 346° |
| 2026-04-28 21:43 | 54.34189 | 8.66841 | 32123 ft | 348 kts | 344° |
| 2026-04-28 21:44 | 54.36520 | 8.65502 | 32120 ft | 359 kts | 344° |
| 2026-04-28 21:44 | 54.38925 | 8.64134 | 32121 ft | 369 kts | 344° |
| 2026-04-28 21:44 | 54.43921 | 8.61321 | 32120 ft | 386 kts | 344° |
| 2026-04-28 21:45 | 54.49108 | 8.58376 | 32117 ft | 398 kts | 345° |
| 2026-04-28 21:45 | 54.54430 | 8.55351 | 32121 ft | 407 kts | 345° |
| 2026-04-28 21:46 | 54.57092 | 8.53832 | 32126 ft | 390 kts | 345° |
| 2026-04-28 21:46 | 54.59574 | 8.52406 | 32107 ft | 362 kts | 345° |
| 2026-04-28 21:46 | 54.61886 | 8.51086 | 32104 ft | 338 kts | 345° |
| 2026-04-28 21:46 | 54.64045 | 8.49855 | 32103 ft | 316 kts | 345° |
| 2026-04-28 21:47 | 54.66070 | 8.48698 | 32106 ft | 297 kts | 345° |
| 2026-04-28 21:47 | 54.67975 | 8.47606 | 32104 ft | 279 kts | 346° |
| 2026-04-28 21:47 | 54.69767 | 8.46578 | 32104 ft | 263 kts | 346° |
| 2026-04-28 21:47 | 54.71457 | 8.45608 | 32100 ft | 249 kts | 346° |
| 2026-04-28 21:48 | 54.73055 | 8.44690 | 32110 ft | 235 kts | 346° |
| 2026-04-28 21:48 | 54.74564 | 8.43823 | 32108 ft | 222 kts | 346° |
| 2026-04-28 21:48 | 54.75991 | 8.43001 | 32105 ft | 210 kts | 347° |
| 2026-04-28 21:48 | 54.77343 | 8.42225 | 32106 ft | 201 kts | 347° |
| 2026-04-28 21:49 | 54.78715 | 8.41443 | 32151 ft | 216 kts | 347° |
| 2026-04-28 21:49 | 54.80181 | 8.40605 | 32169 ft | 234 kts | 346° |
| 2026-04-28 21:49 | 54.81790 | 8.39677 | 32170 ft | 253 kts | 346° |
| 2026-04-28 21:49 | 54.83517 | 8.38676 | 32163 ft | 270 kts | 345° |
| 2026-04-28 21:50 | 54.85357 | 8.37611 | 32162 ft | 287 kts | 345° |
| 2026-04-28 21:50 | 54.87304 | 8.36484 | 32157 ft | 303 kts | 345° |
| 2026-04-28 21:50 | 54.89351 | 8.35297 | 32160 ft | 317 kts | 345° |
| 2026-04-28 21:50 | 54.91521 | 8.34355 | 32153 ft | 326 kts | 356° |
| 2026-04-28 21:51 | 54.96196 | 8.34292 | 32145 ft | 347 kts | 2° |
| 2026-04-28 21:51 | 55.01161 | 8.34346 | 32146 ft | 365 kts | 2° |
| 2026-04-28 21:52 | 55.06352 | 8.34398 | 32145 ft | 379 kts | 2° |
| 2026-04-28 21:52 | 55.11703 | 8.34455 | 32145 ft | 390 kts | 2° |
| 2026-04-28 21:53 | 55.17127 | 8.34508 | 32137 ft | 374 kts | 2° |
| 2026-04-28 21:53 | 55.19633 | 8.34528 | 32125 ft | 346 kts | 2° |
| 2026-04-28 21:53 | 55.21956 | 8.34554 | 32122 ft | 321 kts | 2° |
| 2026-04-28 21:54 | 55.24119 | 8.34578 | 32122 ft | 300 kts | 3° |
| 2026-04-28 21:54 | 55.26136 | 8.34600 | 32123 ft | 280 kts | 3° |
| 2026-04-28 21:54 | 55.28023 | 8.34620 | 32121 ft | 263 kts | 3° |
| 2026-04-28 21:54 | 55.29796 | 8.34638 | 32120 ft | 247 kts | 4° |
| 2026-04-28 21:55 | 55.31462 | 8.34657 | 32119 ft | 232 kts | 4° |
| 2026-04-28 21:55 | 55.33010 | 8.34672 | 32118 ft | 219 kts | 4° |
| 2026-04-28 21:55 | 55.34488 | 8.34690 | 32117 ft | 206 kts | 4° |
| 2026-04-28 21:55 | 55.35882 | 8.34703 | 32115 ft | 195 kts | 4° |
| 2026-04-28 21:56 | 55.37204 | 8.34719 | 32117 ft | 190 kts | 4° |
| 2026-04-28 21:56 | 55.38582 | 8.34743 | 32166 ft | 207 kts | 4° |
| 2026-04-28 21:56 | 55.40086 | 8.34761 | 32174 ft | 226 kts | 4° |
| 2026-04-28 21:56 | 55.41722 | 8.34779 | 32174 ft | 244 kts | 3° |
| 2026-04-28 21:57 | 55.43487 | 8.34796 | 32172 ft | 262 kts | 3° |
| 2026-04-28 21:57 | 55.45368 | 8.34814 | 32169 ft | 278 kts | 4° |
| 2026-04-28 21:57 | 55.47353 | 8.34837 | 32160 ft | 293 kts | 4° |
| 2026-04-28 21:57 | 55.49446 | 8.34860 | 32156 ft | 308 kts | 4° |
| 2026-04-28 21:58 | 55.51634 | 8.34882 | 32159 ft | 320 kts | 4° |
| 2026-04-28 21:58 | 55.53906 | 8.34906 | 32154 ft | 332 kts | 4° |
| 2026-04-28 21:58 | 55.56258 | 8.34929 | 32156 ft | 343 kts | 4° |
| 2026-04-28 21:58 | 55.58673 | 8.34956 | 32151 ft | 352 kts | 4° |
| 2026-04-28 21:59 | 55.63681 | 8.35009 | 32158 ft | 367 kts | 4° |
| 2026-04-28 22:00 | 55.71520 | 8.35092 | 32164 ft | 383 kts | 3° |
| 2026-04-28 22:00 | 55.76694 | 8.35135 | 32138 ft | 346 kts | 4° |
| 2026-04-28 22:00 | 55.79011 | 8.35158 | 32136 ft | 320 kts | 4° |
| 2026-04-28 22:01 | 55.81159 | 8.35185 | 32133 ft | 298 kts | 4° |
| 2026-04-28 22:01 | 55.83164 | 8.35210 | 32136 ft | 278 kts | 4° |
| 2026-04-28 22:01 | 55.85010 | 8.35229 | 32136 ft | 260 kts | 5° |
| 2026-04-28 22:01 | 55.86764 | 8.35248 | 32135 ft | 244 kts | 5° |
| 2026-04-28 22:02 | 55.88410 | 8.35267 | 32137 ft | 229 kts | 5° |
| 2026-04-28 22:02 | 55.89959 | 8.35283 | 32136 ft | 215 kts | 5° |
| 2026-04-28 22:02 | 55.91417 | 8.35301 | 32135 ft | 203 kts | 6° |
| 2026-04-28 22:02 | 55.92787 | 8.35314 | 32133 ft | 191 kts | 6° |
| 2026-04-28 22:03 | 55.94077 | 8.35330 | 32131 ft | 180 kts | 6° |
| 2026-04-28 22:03 | 55.95364 | 8.35354 | 32161 ft | 193 kts | 6° |
| 2026-04-28 22:03 | 55.96774 | 8.35377 | 32188 ft | 212 kts | 5° |
| 2026-04-28 22:03 | 55.98318 | 8.35396 | 32192 ft | 231 kts | 5° |
| 2026-04-28 22:04 | 55.99967 | 8.35691 | 32192 ft | 246 kts | 14° |
| 2026-04-28 22:04 | 56.01709 | 8.36268 | 32191 ft | 263 kts | 13° |
| 2026-04-28 22:04 | 56.03570 | 8.36842 | 32186 ft | 279 kts | 12° |
| 2026-04-28 22:04 | 56.05508 | 8.37449 | 32180 ft | 294 kts | 12° |
| 2026-04-28 22:05 | 56.07567 | 8.38105 | 32177 ft | 307 kts | 12° |
| 2026-04-28 22:05 | 56.09715 | 8.38791 | 32173 ft | 320 kts | 12° |
| 2026-04-28 22:05 | 56.11945 | 8.39500 | 32172 ft | 331 kts | 12° |
| 2026-04-28 22:06 | 56.16608 | 8.40986 | 32172 ft | 349 kts | 12° |
| 2026-04-28 22:06 | 56.21492 | 8.42547 | 32169 ft | 363 kts | 12° |
| 2026-04-28 22:07 | 56.26549 | 8.44169 | 32172 ft | 374 kts | 12° |
| 2026-04-28 22:07 | 56.31628 | 8.45797 | 32162 ft | 350 kts | 12° |
| 2026-04-28 22:07 | 56.33928 | 8.46534 | 32149 ft | 322 kts | 12° |
| 2026-04-28 22:08 | 56.36048 | 8.47220 | 32154 ft | 297 kts | 12° |
| 2026-04-28 22:08 | 56.38009 | 8.47854 | 32146 ft | 276 kts | 12° |
| 2026-04-28 22:08 | 56.39835 | 8.48446 | 32145 ft | 257 kts | 12° |
| 2026-04-28 22:08 | 56.41532 | 8.48993 | 32145 ft | 239 kts | 12° |
| 2026-04-28 22:09 | 56.43119 | 8.49508 | 32148 ft | 224 kts | 12° |
| 2026-04-28 22:09 | 56.44603 | 8.49989 | 32151 ft | 210 kts | 13° |
| 2026-04-28 22:09 | 56.45992 | 8.50439 | 32150 ft | 196 kts | 13° |
| 2026-04-28 22:09 | 56.47294 | 8.50863 | 32148 ft | 184 kts | 13° |
| 2026-04-28 22:10 | 56.48514 | 8.51256 | 32144 ft | 172 kts | 13° |
| 2026-04-28 22:10 | 56.49675 | 8.51639 | 32154 ft | 173 kts | 13° |
| 2026-04-28 22:10 | 56.50918 | 8.52048 | 32198 ft | 191 kts | 13° |
| 2026-04-28 22:10 | 56.52295 | 8.52499 | 32206 ft | 211 kts | 13° |
| 2026-04-28 22:11 | 56.53805 | 8.52991 | 32204 ft | 230 kts | 12° |
| 2026-04-28 22:11 | 56.55444 | 8.53523 | 32205 ft | 248 kts | 12° |
| 2026-04-28 22:11 | 56.57201 | 8.54095 | 32198 ft | 265 kts | 12° |
| 2026-04-28 22:11 | 56.59070 | 8.54706 | 32192 ft | 280 kts | 12° |
| 2026-04-28 22:12 | 56.61013 | 8.55339 | 32191 ft | 294 kts | 12° |
| 2026-04-28 22:12 | 56.63076 | 8.56015 | 32188 ft | 307 kts | 12° |
| 2026-04-28 22:12 | 56.65221 | 8.56716 | 32186 ft | 319 kts | 12° |
| 2026-04-28 22:12 | 56.67445 | 8.57447 | 32185 ft | 330 kts | 12° |
| 2026-04-28 22:13 | 56.69737 | 8.58198 | 32189 ft | 339 kts | 12° |
| 2026-04-28 22:13 | 56.74491 | 8.59762 | 32186 ft | 354 kts | 12° |
| 2026-04-28 22:14 | 56.79421 | 8.61389 | 32187 ft | 366 kts | 12° |
| 2026-04-28 22:14 | 56.84391 | 8.63030 | 32177 ft | 342 kts | 11° |
| 2026-04-28 22:14 | 56.86635 | 8.63771 | 32163 ft | 314 kts | 11° |
| 2026-04-28 22:15 | 56.88703 | 8.64458 | 32160 ft | 290 kts | 11° |
| 2026-04-28 22:15 | 56.90610 | 8.65093 | 32159 ft | 268 kts | 11° |
| 2026-04-28 22:15 | 56.92381 | 8.65681 | 32158 ft | 249 kts | 12° |
| 2026-04-28 22:15 | 56.94025 | 8.66219 | 32154 ft | 232 kts | 8° |
| 2026-04-28 22:16 | 56.95069 | 8.66106 | 32200 ft | 224 kts | 352° |
| 2026-04-28 22:16 | 56.96506 | 8.65266 | 32290 ft | 208 kts | 349° |
| 2026-04-28 22:16 | 56.97850 | 8.64557 | 32361 ft | 198 kts | 353° |
| 2026-04-28 22:16 | 56.99234 | 8.64020 | 32457 ft | 211 kts | 355° |
| 2026-04-28 22:17 | 57.00737 | 8.63470 | 32471 ft | 230 kts | 354° |
| 2026-04-28 22:17 | 57.02363 | 8.62856 | 32475 ft | 247 kts | 353° |
| 2026-04-28 22:17 | 57.04108 | 8.62183 | 32471 ft | 264 kts | 353° |
| 2026-04-28 22:17 | 57.05960 | 8.61471 | 32468 ft | 280 kts | 353° |
| 2026-04-28 22:18 | 57.07917 | 8.60718 | 32466 ft | 294 kts | 353° |
| 2026-04-28 22:18 | 57.09971 | 8.59930 | 32465 ft | 308 kts | 353° |
| 2026-04-28 22:18 | 57.12103 | 8.59111 | 32462 ft | 318 kts | 352° |
| 2026-04-28 22:19 | 57.16467 | 8.57424 | 32458 ft | 322 kts | 352° |
| 2026-04-28 22:19 | 57.20863 | 8.55728 | 32460 ft | 323 kts | 352° |
| 2026-04-28 22:20 | 57.25258 | 8.54028 | 32457 ft | 322 kts | 352° |
| 2026-04-28 22:20 | 57.29643 | 8.52327 | 32457 ft | 322 kts | 352° |
| 2026-04-28 22:21 | 57.34027 | 8.50623 | 32461 ft | 322 kts | 352° |
| 2026-04-28 22:21 | 57.38403 | 8.48917 | 32462 ft | 319 kts | 353° |
| 2026-04-28 22:22 | 57.42712 | 8.47234 | 32452 ft | 316 kts | 353° |
| 2026-04-28 22:22 | 57.47038 | 8.45542 | 32456 ft | 319 kts | 353° |
| 2026-04-28 22:23 | 57.51359 | 8.43845 | 32463 ft | 320 kts | 353° |
| 2026-04-28 22:23 | 57.55665 | 8.42146 | 32450 ft | 311 kts | 353° |
| 2026-04-28 22:24 | 57.59930 | 8.40471 | 32448 ft | 313 kts | 353° |
| 2026-04-28 22:24 | 57.64206 | 8.38778 | 32453 ft | 314 kts | 353° |
| 2026-04-28 22:25 | 57.68410 | 8.37108 | 32459 ft | 306 kts | 354° |
| 2026-04-28 22:25 | 57.72592 | 8.35453 | 32456 ft | 309 kts | 354° |
| 2026-04-28 22:26 | 57.76811 | 8.33771 | 32465 ft | 310 kts | 354° |
| 2026-04-28 22:26 | 57.81020 | 8.32090 | 32464 ft | 308 kts | 354° |
| 2026-04-28 22:27 | 57.85210 | 8.30415 | 32458 ft | 307 kts | 354° |
| 2026-04-28 22:27 | 57.89378 | 8.28744 | 32461 ft | 306 kts | 354° |
| 2026-04-28 22:28 | 57.93552 | 8.27067 | 32484 ft | 308 kts | 353° |
| 2026-04-28 22:28 | 57.97703 | 8.25391 | 32479 ft | 302 kts | 354° |
| 2026-04-28 22:29 | 58.01828 | 8.23729 | 32484 ft | 304 kts | 354° |
| 2026-04-28 22:29 | 58.05953 | 8.22058 | 32489 ft | 305 kts | 353° |
| 2026-04-28 22:30 | 58.10115 | 8.20368 | 32486 ft | 306 kts | 353° |
| 2026-04-28 22:30 | 58.14259 | 8.18681 | 32484 ft | 303 kts | 354° |
| 2026-04-28 22:31 | 58.18368 | 8.17006 | 32480 ft | 302 kts | 354° |
| 2026-04-28 22:31 | 58.22500 | 8.15321 | 32492 ft | 305 kts | 353° |
| 2026-04-28 22:31 | 58.24556 | 8.14475 | 32489 ft | 300 kts | 353° |
| 2026-04-28 22:32 | 58.26589 | 8.13638 | 32484 ft | 299 kts | 354° |
| 2026-04-28 22:32 | 58.30683 | 8.11966 | 32485 ft | 303 kts | 354° |
| 2026-04-28 22:33 | 58.34796 | 8.10268 | 32490 ft | 301 kts | 353° |
| 2026-04-28 22:33 | 58.36837 | 8.09426 | 32494 ft | 300 kts | 354° |
| 2026-04-28 22:33 | 58.38872 | 8.08586 | 32485 ft | 298 kts | 354° |
| 2026-04-28 22:33 | 58.40905 | 8.07747 | 32484 ft | 300 kts | 354° |
| 2026-04-28 22:34 | 58.42952 | 8.06901 | 32482 ft | 301 kts | 354° |
| 2026-04-28 22:34 | 58.47059 | 8.05198 | 32490 ft | 302 kts | 354° |
| 2026-04-28 22:34 | 58.49108 | 8.04345 | 32486 ft | 300 kts | 354° |
| 2026-04-28 22:35 | 58.51143 | 8.03496 | 32487 ft | 299 kts | 354° |
| 2026-04-28 22:35 | 58.53171 | 8.02656 | 32483 ft | 298 kts | 354° |
| 2026-04-28 22:35 | 58.55175 | 8.01821 | 32482 ft | 299 kts | 354° |
| 2026-04-28 22:35 | 58.57213 | 8.00971 | 32488 ft | 300 kts | 354° |
| 2026-04-28 22:36 | 58.59258 | 8.00116 | 32490 ft | 301 kts | 354° |
| 2026-04-28 22:36 | 58.63367 | 7.98395 | 32494 ft | 302 kts | 354° |
| 2026-04-28 22:37 | 58.67454 | 7.96680 | 32489 ft | 300 kts | 354° |
| 2026-04-28 22:37 | 58.69487 | 7.95826 | 32487 ft | 299 kts | 354° |
| 2026-04-28 22:37 | 58.71519 | 7.94972 | 32485 ft | 298 kts | 354° |
| 2026-04-28 22:37 | 58.73547 | 7.94118 | 32486 ft | 299 kts | 354° |
| 2026-04-28 22:38 | 58.75589 | 7.93258 | 32491 ft | 301 kts | 354° |
| 2026-04-28 22:38 | 58.79688 | 7.91524 | 32497 ft | 301 kts | 353° |
| 2026-04-28 22:38 | 58.81729 | 7.90657 | 32495 ft | 299 kts | 353° |
| 2026-04-28 22:39 | 58.83753 | 7.89801 | 32496 ft | 297 kts | 353° |
| 2026-04-28 22:39 | 58.85771 | 7.88946 | 32495 ft | 297 kts | 353° |
| 2026-04-28 22:39 | 58.87794 | 7.88088 | 32493 ft | 298 kts | 353° |
| 2026-04-28 22:39 | 58.89825 | 7.87224 | 32494 ft | 299 kts | 353° |
| 2026-04-28 22:40 | 58.91856 | 7.86359 | 32499 ft | 299 kts | 353° |
| 2026-04-28 22:40 | 58.93893 | 7.85489 | 32502 ft | 300 kts | 353° |
| 2026-04-28 22:40 | 58.95931 | 7.84619 | 32502 ft | 300 kts | 353° |
| 2026-04-28 22:40 | 58.97969 | 7.83747 | 32502 ft | 299 kts | 353° |
| 2026-04-28 22:41 | 58.99998 | 7.82878 | 32501 ft | 299 kts | 353° |
| 2026-04-28 22:41 | 59.02026 | 7.82009 | 32501 ft | 298 kts | 353° |
| 2026-04-28 22:41 | 59.04049 | 7.81143 | 32499 ft | 297 kts | 353° |
| 2026-04-28 22:41 | 59.06065 | 7.80278 | 32499 ft | 297 kts | 353° |
| 2026-04-28 22:42 | 59.08083 | 7.79408 | 32495 ft | 297 kts | 353° |
| 2026-04-28 22:42 | 59.10104 | 7.78540 | 32503 ft | 298 kts | 353° |
| 2026-04-28 22:42 | 59.12132 | 7.77665 | 32505 ft | 299 kts | 353° |
| 2026-04-28 22:42 | 59.14161 | 7.76791 | 32505 ft | 299 kts | 353° |
| 2026-04-28 22:43 | 59.16193 | 7.75911 | 32499 ft | 299 kts | 353° |
| 2026-04-28 22:43 | 59.18229 | 7.75031 | 32501 ft | 300 kts | 353° |
| 2026-04-28 22:43 | 59.20262 | 7.74150 | 32503 ft | 299 kts | 353° |
| 2026-04-28 22:43 | 59.22287 | 7.73271 | 32497 ft | 297 kts | 353° |
| 2026-04-28 22:44 | 59.24305 | 7.72393 | 32459 ft | 296 kts | 353° |
| 2026-04-28 22:44 | 59.28382 | 7.70626 | 32507 ft | 302 kts | 353° |
| 2026-04-28 22:45 | 59.32468 | 7.68838 | 32503 ft | 300 kts | 353° |
| 2026-04-28 22:45 | 59.34508 | 7.67949 | 32510 ft | 300 kts | 353° |
| 2026-04-28 22:45 | 59.36549 | 7.67058 | 32508 ft | 301 kts | 353° |
| 2026-04-28 22:46 | 59.40651 | 7.65260 | 32498 ft | 302 kts | 352° |
| 2026-04-28 22:46 | 59.42692 | 7.64361 | 32514 ft | 300 kts | 352° |
| 2026-04-28 22:46 | 59.44704 | 7.63478 | 32515 ft | 300 kts | 353° |
| 2026-04-28 22:46 | 59.46734 | 7.62585 | 32518 ft | 299 kts | 352° |
| 2026-04-28 22:47 | 59.48772 | 7.61686 | 32512 ft | 301 kts | 352° |
| 2026-04-28 22:47 | 59.52864 | 7.59880 | 32513 ft | 302 kts | 352° |
| 2026-04-28 22:48 | 59.56948 | 7.58072 | 32507 ft | 299 kts | 352° |
| 2026-04-28 22:48 | 59.58978 | 7.57172 | 32510 ft | 298 kts | 352° |
| 2026-04-28 22:48 | 59.61001 | 7.56275 | 32511 ft | 298 kts | 352° |
| 2026-04-28 22:48 | 59.63026 | 7.55375 | 32506 ft | 299 kts | 352° |
| 2026-04-28 22:49 | 59.65058 | 7.54471 | 32509 ft | 300 kts | 352° |
| 2026-04-28 22:49 | 59.69141 | 7.52650 | 32512 ft | 301 kts | 352° |
| 2026-04-28 22:49 | 59.71177 | 7.51739 | 32511 ft | 300 kts | 352° |
| 2026-04-28 22:50 | 59.73210 | 7.50829 | 32512 ft | 299 kts | 352° |
| 2026-04-28 22:50 | 59.75235 | 7.49923 | 32506 ft | 298 kts | 352° |
| 2026-04-28 22:50 | 59.77251 | 7.49019 | 32503 ft | 297 kts | 352° |
| 2026-04-28 22:50 | 59.79273 | 7.48113 | 32509 ft | 299 kts | 352° |
| 2026-04-28 22:51 | 59.81314 | 7.47196 | 32507 ft | 301 kts | 352° |
| 2026-04-28 22:51 | 59.85398 | 7.45354 | 32515 ft | 300 kts | 352° |
| 2026-04-28 22:51 | 59.87426 | 7.44438 | 32514 ft | 298 kts | 352° |
| 2026-04-28 22:52 | 59.89448 | 7.43527 | 32504 ft | 298 kts | 352° |
| 2026-04-28 22:52 | 59.91469 | 7.42613 | 32505 ft | 299 kts | 352° |
| 2026-04-28 22:52 | 59.93509 | 7.41690 | 32505 ft | 300 kts | 352° |
| 2026-04-28 22:53 | 59.97596 | 7.39835 | 32500 ft | 301 kts | 352° |
| 2026-04-28 22:53 | 59.99622 | 7.38910 | 32502 ft | 297 kts | 352° |
| 2026-04-28 22:53 | 60.01635 | 7.37996 | 32497 ft | 296 kts | 352° |
| 2026-04-28 22:53 | 60.03622 | 7.37092 | 32497 ft | 297 kts | 352° |
| 2026-04-28 22:54 | 60.05636 | 7.36171 | 32493 ft | 297 kts | 352° |
| 2026-04-28 22:54 | 60.07653 | 7.35250 | 32496 ft | 297 kts | 352° |
| 2026-04-28 22:54 | 60.09672 | 7.34327 | 32493 ft | 298 kts | 352° |
| 2026-04-28 22:54 | 60.11693 | 7.33401 | 32495 ft | 298 kts | 352° |
| 2026-04-28 22:55 | 60.13715 | 7.32475 | 32488 ft | 300 kts | 351° |
| 2026-04-28 22:55 | 60.17819 | 7.30587 | 32491 ft | 301 kts | 351° |
| 2026-04-28 22:55 | 60.19851 | 7.29650 | 32489 ft | 299 kts | 351° |
| 2026-04-28 22:56 | 60.21886 | 7.28715 | 32480 ft | 300 kts | 351° |
| 2026-04-28 22:56 | 60.25975 | 7.26826 | 32481 ft | 302 kts | 351° |
| 2026-04-28 22:57 | 60.30070 | 7.24928 | 32473 ft | 301 kts | 351° |
| 2026-04-28 22:57 | 60.32105 | 7.23985 | 32471 ft | 300 kts | 351° |
| 2026-04-28 22:57 | 60.34137 | 7.23042 | 32463 ft | 299 kts | 351° |
| 2026-04-28 22:57 | 60.36162 | 7.22099 | 32466 ft | 299 kts | 351° |
| 2026-04-28 22:58 | 60.38199 | 7.21153 | 32463 ft | 301 kts | 351° |
| 2026-04-28 22:58 | 60.42291 | 7.19242 | 32465 ft | 303 kts | 351° |
| 2026-04-28 22:58 | 60.44328 | 7.18287 | 32459 ft | 299 kts | 351° |
| 2026-04-28 22:59 | 60.46357 | 7.17339 | 32456 ft | 299 kts | 351° |
| 2026-04-28 22:59 | 60.48388 | 7.16388 | 32458 ft | 300 kts | 351° |
| 2026-04-28 22:59 | 60.49739 | 7.15754 | 32463 ft | 302 kts | 351° |
| 2026-04-28 23:00 | 60.53837 | 7.13828 | 32458 ft | 302 kts | 351° |
| 2026-04-28 23:00 | 60.57928 | 7.11899 | 32467 ft | 301 kts | 351° |
| 2026-04-28 23:00 | 60.59962 | 7.10939 | 32457 ft | 299 kts | 351° |
| 2026-04-28 23:01 | 60.61985 | 7.09980 | 32457 ft | 298 kts | 351° |
| 2026-04-28 23:01 | 60.64008 | 7.09025 | 32455 ft | 298 kts | 350° |
| 2026-04-28 23:01 | 60.66031 | 7.08068 | 32447 ft | 299 kts | 350° |
| 2026-04-28 23:01 | 60.68057 | 7.07104 | 32445 ft | 299 kts | 351° |
| 2026-04-28 23:02 | 60.70089 | 7.06139 | 32444 ft | 300 kts | 350° |
| 2026-04-28 23:02 | 60.74164 | 7.04197 | 32445 ft | 300 kts | 351° |
| 2026-04-28 23:02 | 60.76193 | 7.03231 | 32445 ft | 299 kts | 350° |
| 2026-04-28 23:03 | 60.78195 | 7.02274 | 32446 ft | 299 kts | 350° |
| 2026-04-28 23:03 | 60.80228 | 7.01302 | 32441 ft | 300 kts | 350° |
| 2026-04-28 23:03 | 60.82256 | 7.00330 | 32441 ft | 299 kts | 350° |
| 2026-04-28 23:03 | 60.84280 | 6.99359 | 32441 ft | 299 kts | 350° |
| 2026-04-28 23:04 | 60.86304 | 6.98388 | 32444 ft | 299 kts | 350° |
| 2026-04-28 23:04 | 60.90343 | 6.96446 | 32438 ft | 298 kts | 350° |
| 2026-04-28 23:04 | 60.92362 | 6.95471 | 32439 ft | 299 kts | 350° |
| 2026-04-28 23:05 | 60.96438 | 6.93503 | 32437 ft | 301 kts | 350° |
| 2026-04-28 23:05 | 60.98464 | 6.92520 | 32428 ft | 297 kts | 349° |
| 2026-04-28 23:05 | 61.00485 | 6.91540 | 32435 ft | 300 kts | 350° |
| 2026-04-28 23:06 | 61.04568 | 6.89560 | 32420 ft | 303 kts | 349° |
| 2026-04-28 23:06 | 61.08714 | 6.87542 | 32433 ft | 307 kts | 349° |
| 2026-04-28 23:07 | 61.12845 | 6.85523 | 32430 ft | 303 kts | 349° |
| 2026-04-28 23:07 | 61.16951 | 6.83516 | 32438 ft | 303 kts | 349° |
| 2026-04-28 23:08 | 61.21030 | 6.81513 | 32442 ft | 303 kts | 349° |
| 2026-04-28 23:08 | 61.25136 | 6.79491 | 32444 ft | 304 kts | 349° |
| 2026-04-28 23:09 | 61.29259 | 6.77458 | 32435 ft | 304 kts | 349° |
| 2026-04-28 23:09 | 61.33388 | 6.75416 | 32441 ft | 305 kts | 349° |
| 2026-04-28 23:10 | 61.37523 | 6.73363 | 32443 ft | 305 kts | 349° |
| 2026-04-28 23:10 | 61.41639 | 6.71316 | 32427 ft | 302 kts | 349° |
| 2026-04-28 23:11 | 61.45754 | 6.69264 | 32432 ft | 306 kts | 349° |
| 2026-04-28 23:11 | 61.49864 | 6.67207 | 32440 ft | 304 kts | 349° |
| 2026-04-28 23:12 | 61.53989 | 6.65138 | 32447 ft | 305 kts | 349° |
| 2026-04-28 23:12 | 61.58124 | 6.63058 | 32428 ft | 301 kts | 349° |
| 2026-04-28 23:13 | 61.60129 | 6.62046 | 31458 ft | 300 kts | 349° |
| 2026-04-28 23:13 | 61.62045 | 6.61082 | 30596 ft | 299 kts | 349° |
| 2026-04-28 23:13 | 61.64050 | 6.60068 | 29575 ft | 296 kts | 349° |
| 2026-04-28 23:13 | 61.66043 | 6.59061 | 28601 ft | 292 kts | 348° |
| 2026-04-28 23:14 | 61.68030 | 6.58053 | 28002 ft | 292 kts | 348° |
| 2026-04-28 23:14 | 61.69972 | 6.57066 | 27204 ft | 286 kts | 348° |
| 2026-04-28 23:14 | 61.71915 | 6.56082 | 26268 ft | 286 kts | 348° |
| 2026-04-28 23:14 | 61.73838 | 6.55104 | 25484 ft | 284 kts | 348° |
| 2026-04-28 23:15 | 61.75746 | 6.54131 | 24619 ft | 282 kts | 348° |
| 2026-04-28 23:15 | 61.77645 | 6.53164 | 23806 ft | 280 kts | 347° |
| 2026-04-28 23:15 | 61.79529 | 6.52202 | 22940 ft | 277 kts | 347° |
| 2026-04-28 23:15 | 61.81393 | 6.51249 | 22097 ft | 274 kts | 347° |
| 2026-04-28 23:16 | 61.83238 | 6.50305 | 21256 ft | 272 kts | 347° |
| 2026-04-28 23:16 | 61.85070 | 6.49367 | 20422 ft | 270 kts | 347° |
| 2026-04-28 23:16 | 61.86886 | 6.48434 | 19626 ft | 268 kts | 347° |
| 2026-04-28 23:16 | 61.88693 | 6.47506 | 18870 ft | 266 kts | 347° |
| 2026-04-28 23:17 | 61.90373 | 6.46642 | 18074 ft | 264 kts | 346° |
| 2026-04-28 23:17 | 61.92158 | 6.45725 | 17280 ft | 263 kts | 346° |
| 2026-04-28 23:17 | 61.93930 | 6.44810 | 16484 ft | 261 kts | 346° |
| 2026-04-28 23:17 | 61.95683 | 6.43906 | 15803 ft | 258 kts | 345° |
| 2026-04-28 23:18 | 61.97403 | 6.43017 | 15472 ft | 249 kts | 345° |
| 2026-04-28 23:18 | 61.99108 | 6.42134 | 15466 ft | 258 kts | 345° |
| 2026-04-28 23:18 | 62.00855 | 6.41274 | 15453 ft | 258 kts | 351° |
| 2026-04-28 23:18 | 62.02650 | 6.41943 | 15451 ft | 272 kts | 22° |
| 2026-04-28 23:19 | 62.04250 | 6.44149 | 15461 ft | 276 kts | 30° |
| 2026-04-28 23:19 | 62.05837 | 6.46432 | 15464 ft | 275 kts | 26° |
| 2026-04-28 23:19 | 62.07523 | 6.48273 | 15467 ft | 270 kts | 19° |
| 2026-04-28 23:19 | 62.09273 | 6.49724 | 15459 ft | 271 kts | 17° |
| 2026-04-28 23:20 | 62.11028 | 6.51225 | 15457 ft | 271 kts | 19° |
| 2026-04-28 23:20 | 62.12742 | 6.52821 | 15452 ft | 268 kts | 19° |
| 2026-04-28 23:20 | 62.14462 | 6.54421 | 15454 ft | 271 kts | 19° |
| 2026-04-28 23:20 | 62.16206 | 6.56017 | 15463 ft | 272 kts | 19° |
| 2026-04-28 23:21 | 62.17938 | 6.57600 | 15467 ft | 270 kts | 19° |
| 2026-04-28 23:21 | 62.19658 | 6.59182 | 15467 ft | 270 kts | 19° |
| 2026-04-28 23:21 | 62.21395 | 6.60780 | 15462 ft | 271 kts | 19° |
| 2026-04-28 23:21 | 62.23117 | 6.62391 | 15462 ft | 271 kts | 20° |
| 2026-04-28 23:22 | 62.24833 | 6.64094 | 15464 ft | 271 kts | 20° |
| 2026-04-28 23:22 | 62.26521 | 6.65799 | 15462 ft | 272 kts | 21° |
| 2026-04-28 23:22 | 62.28226 | 6.67528 | 15461 ft | 270 kts | 21° |
| 2026-04-28 23:22 | 62.29917 | 6.69303 | 15463 ft | 272 kts | 22° |
| 2026-04-28 23:23 | 62.31606 | 6.71173 | 15460 ft | 271 kts | 23° |
| 2026-04-28 23:23 | 62.33276 | 6.73051 | 15460 ft | 272 kts | 23° |
| 2026-04-28 23:23 | 62.34956 | 6.74948 | 15455 ft | 273 kts | 23° |
| 2026-04-28 23:23 | 62.36633 | 6.76841 | 15457 ft | 272 kts | 23° |
| 2026-04-28 23:24 | 62.38314 | 6.78747 | 15460 ft | 272 kts | 23° |
| 2026-04-28 23:24 | 62.40027 | 6.80685 | 15447 ft | 279 kts | 23° |
| 2026-04-28 23:24 | 62.41714 | 6.82599 | 14743 ft | 274 kts | 23° |
| 2026-04-28 23:24 | 62.43421 | 6.84527 | 13852 ft | 277 kts | 23° |
| 2026-04-28 23:25 | 62.45105 | 6.86410 | 13033 ft | 274 kts | 23° |
| 2026-04-28 23:25 | 62.46794 | 6.88283 | 12220 ft | 272 kts | 23° |
| 2026-04-28 23:25 | 62.48474 | 6.90099 | 11434 ft | 270 kts | 23° |
| 2026-04-28 23:25 | 62.50148 | 6.91898 | 10694 ft | 267 kts | 23° |
| 2026-04-28 23:26 | 62.51814 | 6.93673 | 9924 ft | 266 kts | 23° |
| 2026-04-28 23:26 | 62.53474 | 6.95421 | 9125 ft | 264 kts | 23° |
| 2026-04-28 23:26 | 62.55121 | 6.97147 | 8355 ft | 262 kts | 23° |
| 2026-04-28 23:26 | 62.56762 | 6.98852 | 7579 ft | 261 kts | 23° |
| 2026-04-28 23:27 | 62.58401 | 7.00546 | 6845 ft | 260 kts | 23° |
| 2026-04-28 23:27 | 62.60027 | 7.02213 | 6229 ft | 255 kts | 23° |
| 2026-04-28 23:27 | 62.61614 | 7.03841 | 6026 ft | 250 kts | 23° |
| 2026-04-28 23:27 | 62.63218 | 7.05479 | 6034 ft | 258 kts | 23° |
| 2026-04-28 23:28 | 62.64753 | 7.07048 | 6035 ft | 259 kts | 23° |
| 2026-04-28 23:28 | 62.66394 | 7.08725 | 6038 ft | 261 kts | 23° |
| 2026-04-28 23:28 | 62.68041 | 7.10413 | 6042 ft | 262 kts | 23° |
| 2026-04-28 23:28 | 62.69686 | 7.12106 | 6040 ft | 260 kts | 23° |
| 2026-04-28 23:29 | 62.71289 | 7.13759 | 5372 ft | 256 kts | 23° |
| 2026-04-28 23:29 | 62.72913 | 7.15434 | 4568 ft | 258 kts | 23° |
| 2026-04-28 23:29 | 62.74517 | 7.17076 | 3872 ft | 257 kts | 23° |
| 2026-04-28 23:29 | 62.76132 | 7.18719 | 3276 ft | 253 kts | 24° |
| 2026-04-28 23:30 | 62.77670 | 7.20273 | 3173 ft | 230 kts | 22° |
| 2026-04-28 23:30 | 62.79103 | 7.21574 | 2953 ft | 216 kts | 20° |
| 2026-04-28 23:30 | 62.80481 | 7.22715 | 2984 ft | 213 kts | 19° |
| 2026-04-28 23:30 | 62.81882 | 7.23880 | 2966 ft | 219 kts | 19° |
| 2026-04-28 23:31 | 62.83337 | 7.25125 | 2823 ft | 229 kts | 20° |
| 2026-04-28 23:31 | 62.84818 | 7.26466 | 2722 ft | 233 kts | 24° |
| 2026-04-28 23:31 | 62.86257 | 7.28094 | 2929 ft | 228 kts | 27° |
| 2026-04-28 23:31 | 62.87627 | 7.29720 | 3065 ft | 227 kts | 27° |
| 2026-04-28 23:32 | 62.89043 | 7.31351 | 3190 ft | 228 kts | 25° |
| 2026-04-28 23:32 | 62.90550 | 7.32614 | 2885 ft | 242 kts | 9° |
| 2026-04-28 23:32 | 62.92254 | 7.32986 | 2425 ft | 245 kts | 2° |
| 2026-04-28 23:32 | 62.93921 | 7.33244 | 2288 ft | 236 kts | 2° |
| 2026-04-28 23:33 | 62.95518 | 7.33542 | 2080 ft | 232 kts | 4° |
| 2026-04-28 23:33 | 62.97101 | 7.34041 | 2000 ft | 226 kts | 8° |
| 2026-04-28 23:33 | 62.98589 | 7.35040 | 1930 ft | 225 kts | 25° |
| 2026-04-28 23:33 | 62.99792 | 7.37208 | 1854 ft | 224 kts | 47° |
| 2026-04-28 23:34 | 63.00819 | 7.39793 | 1794 ft | 221 kts | 49° |
| 2026-04-28 23:34 | 63.01810 | 7.42257 | 1953 ft | 211 kts | 47° |
| 2026-04-28 23:34 | 63.02814 | 7.44557 | 2000 ft | 209 kts | 44° |
| 2026-04-28 23:34 | 63.03839 | 7.46834 | 1994 ft | 209 kts | 44° |
| 2026-04-28 23:35 | 63.04828 | 7.49183 | 2005 ft | 209 kts | 51° |
| 2026-04-28 23:35 | 63.05708 | 7.51730 | 1997 ft | 206 kts | 53° |
| 2026-04-28 23:35 | 63.06551 | 7.54166 | 1992 ft | 194 kts | 51° |
| 2026-04-28 23:35 | 63.07217 | 7.56642 | 1994 ft | 183 kts | 69° |
| 2026-04-28 23:36 | 63.07619 | 7.59162 | 1991 ft | 168 kts | 70° |
| 2026-04-28 23:36 | 63.07987 | 7.61514 | 1996 ft | 157 kts | 71° |
| 2026-04-28 23:36 | 63.08317 | 7.63664 | 1881 ft | 156 kts | 71° |
| 2026-04-28 23:36 | 63.08667 | 7.65967 | 1681 ft | 160 kts | 72° |
| 2026-04-28 23:37 | 63.09002 | 7.68156 | 1465 ft | 135 kts | 72° |
| 2026-04-28 23:37 | 63.09279 | 7.69979 | 1221 ft | 118 kts | 72° |
| 2026-04-28 23:37 | 63.09542 | 7.71696 | 979 ft | 116 kts | 72° |
| 2026-04-28 23:37 | 63.09822 | 7.73538 | 1055 ft | 131 kts | 72° |
| 2026-04-28 23:38 | 63.10120 | 7.75430 | 815 ft | 131 kts | 71° |
| 2026-04-28 23:38 | 63.10401 | 7.77310 | 628 ft | 127 kts | 74° |
| 2026-04-28 23:38 | 63.10685 | 7.79131 | 391 ft | 122 kts | 71° |
| 2026-04-28 23:38 | 63.10938 | 7.80824 | 222 ft | 106 kts | 70° |
| 2026-04-28 23:39 | 63.11146 | 7.82155 | 209 ft | 68 kts | 71° |
| 2026-04-28 23:39 | 63.11231 | 7.82590 | 207 ft | 16 kts | 8° |
| 2026-04-28 23:39 | 63.11294 | 7.82546 | 209 ft | 4 kts | 306° |
| 2026-04-28 23:39 | 63.11294 | 7.82472 | 206 ft | 2 kts | 310° |
| 2026-04-28 23:40 | 63.11307 | 7.82472 | 211 ft | 1 kts | 41° |
| 2026-04-28 23:40 | 63.11312 | 7.82503 | 209 ft | 0 kts | 71° |